createdAt,value
2019-05-01T00:02:21.492Z,25.23
2019-05-01T00:05:05.915Z,23.73
2019-05-01T00:07:37.524Z,25.10
2019-05-01T00:10:08.885Z,24.90
2019-05-01T00:12:39.313Z,25.77
2019-05-01T00:15:10.118Z,25.63
2019-05-01T00:17:47.190Z,26.57
2019-05-01T00:20:18.073Z,26.73
2019-05-01T00:22:48.618Z,26.63
2019-05-01T00:25:20.047Z,24.90
2019-05-01T00:27:50.236Z,25.37
2019-05-01T00:30:29.801Z,25.83
2019-05-01T00:32:55.029Z,26.00
2019-05-01T00:35:26.120Z,26.77
2019-05-01T00:37:58.999Z,26.93
2019-05-01T00:40:29.445Z,25.80
2019-05-01T00:43:00.394Z,26.47
2019-05-01T00:45:30.838Z,27.83
2019-05-01T00:48:01.634Z,27.93
2019-05-01T00:50:31.892Z,26.97
2019-05-01T00:53:02.314Z,26.77
2019-05-01T00:55:51.325Z,26.63
2019-05-01T00:58:43.489Z,23.90
2019-05-01T01:01:48.107Z,25.17
2019-05-01T01:04:20.053Z,24.10
2019-05-01T01:06:50.391Z,25.20
2019-05-01T01:09:24.388Z,24.83
2019-05-01T01:11:54.704Z,23.57
2019-05-01T01:14:24.876Z,23.63
2019-05-01T01:16:58.257Z,23.93
2019-05-01T01:19:29.109Z,22.37
2019-05-01T01:21:59.380Z,25.77
2019-05-01T01:24:32.128Z,24.03
2019-05-01T01:27:02.836Z,25.13
2019-05-01T01:29:39.683Z,25.17
2019-05-01T01:32:09.854Z,23.83
2019-05-01T01:34:40.443Z,24.77
2019-05-01T01:37:11.480Z,24.23
2019-05-01T01:39:42.334Z,24.23
2019-05-01T01:42:12.979Z,24.20
2019-05-01T01:44:56.365Z,25.07
2019-05-01T01:47:26.983Z,22.80
2019-05-01T01:49:59.157Z,24.00
2019-05-01T01:52:30.382Z,23.47
2019-05-01T01:55:00.695Z,21.07
2019-05-01T01:57:31.214Z,23.23
2019-05-01T02:00:02.631Z,23.70
2019-05-01T02:02:44.583Z,22.47
2019-05-01T02:05:18.826Z,22.93
2019-05-01T02:07:49.095Z,23.53
2019-05-01T02:10:19.904Z,22.53
2019-05-01T02:12:50.822Z,20.60
2019-05-01T02:15:22.422Z,21.67
2019-05-01T02:17:52.857Z,22.43
2019-05-01T02:20:28.323Z,23.37
2019-05-01T02:22:58.613Z,22.53
2019-05-01T02:25:34.522Z,21.73
2019-05-01T02:28:33.518Z,21.50
2019-05-01T02:31:29.462Z,21.10
2019-05-01T02:34:01.824Z,23.17
2019-05-01T02:36:34.336Z,23.10
2019-05-01T02:39:07.211Z,22.33
2019-05-01T02:41:41.565Z,23.73
2019-05-01T02:44:18.499Z,21.33
2019-05-01T02:46:51.856Z,24.33
2019-05-01T02:49:36.164Z,21.93
2019-05-01T02:52:10.631Z,21.67
2019-05-01T02:54:47.209Z,24.77
2019-05-01T02:57:21.324Z,24.80
2019-05-01T02:59:55.790Z,25.17
2019-05-01T03:02:28.215Z,27.27
2019-05-01T03:05:01.586Z,26.87
2019-05-01T03:07:34.457Z,28.03
2019-05-01T03:10:09.151Z,28.83
2019-05-01T03:12:44.059Z,26.67
2019-05-01T03:15:15.707Z,29.70
2019-05-01T03:18:21.562Z,27.93
2019-05-01T03:21:10.114Z,28.43
2019-05-01T03:23:44.974Z,28.00
2019-05-01T03:26:17.541Z,29.97
2019-05-01T03:28:48.487Z,29.13
2019-05-01T03:31:19.189Z,30.30
2019-05-01T03:33:54.125Z,28.97
2019-05-01T03:36:24.921Z,29.90
2019-05-01T03:38:55.766Z,30.73
2019-05-01T03:41:26.169Z,30.47
2019-05-01T03:43:57.205Z,29.63
2019-05-01T03:46:28.554Z,29.47
2019-05-01T03:48:59.793Z,28.83
2019-05-01T03:51:30.364Z,28.03
2019-05-01T03:54:03.243Z,27.67
2019-05-01T03:56:34.513Z,26.97
2019-05-01T03:59:05.964Z,27.30
2019-05-01T04:02:02.606Z,26.97
2019-05-01T04:04:33.570Z,29.10
2019-05-01T04:07:04.055Z,25.60
2019-05-01T04:09:36.444Z,25.07
2019-05-01T04:12:09.139Z,28.13
2019-05-01T04:14:39.952Z,25.50
2019-05-01T04:17:21.755Z,24.57
2019-05-01T04:19:52.312Z,26.83
2019-05-01T04:22:22.893Z,27.27
2019-05-01T04:24:55.490Z,26.83
2019-05-01T04:27:31.351Z,24.97
2019-05-01T04:30:10.373Z,26.90
2019-05-01T04:32:51.971Z,25.97
2019-05-01T04:35:20.866Z,26.43
2019-05-01T04:37:53.111Z,25.07
2019-05-01T04:40:24.241Z,27.40
2019-05-01T04:42:55.443Z,24.33
2019-05-01T04:45:32.439Z,24.83
2019-05-01T04:48:03.228Z,24.10
2019-05-01T04:50:34.846Z,24.17
2019-05-01T04:53:05.556Z,24.50
2019-05-01T04:55:36.248Z,22.70
2019-05-01T04:58:06.759Z,23.07
2019-05-01T05:00:37.294Z,23.00
2019-05-01T05:03:12.638Z,23.80
2019-05-01T05:05:43.485Z,23.97
2019-05-01T05:08:15.038Z,23.80
2019-05-01T05:10:46.864Z,23.53
2019-05-01T05:13:29.092Z,24.30
2019-05-01T05:16:19.287Z,23.57
2019-05-01T05:18:49.952Z,24.43
2019-05-01T05:21:21.394Z,23.30
2019-05-01T05:23:52.290Z,24.93
2019-05-01T05:26:22.977Z,23.87
2019-05-01T05:28:57.250Z,24.57
2019-05-01T05:31:28.565Z,24.43
2019-05-01T05:34:00.603Z,24.83
2019-05-01T05:36:32.780Z,23.73
2019-05-01T05:39:11.858Z,21.90
2019-05-01T05:41:43.530Z,22.23
2019-05-01T05:44:14.654Z,22.23
2019-05-01T05:46:45.378Z,23.33
2019-05-01T05:49:16.580Z,24.10
2019-05-01T05:52:14.202Z,22.07
2019-05-01T05:55:07.049Z,23.77
2019-05-01T05:58:00.734Z,23.60
2019-05-01T06:00:59.308Z,24.60
2019-05-01T06:04:06.305Z,23.57
2019-05-01T06:07:03.857Z,24.33
2019-05-01T06:09:48.546Z,23.33
2019-05-01T06:12:41.834Z,24.53
2019-05-01T06:15:41.006Z,23.57
2019-05-01T06:18:26.279Z,22.40
2019-05-01T06:21:25.862Z,23.33
2019-05-01T06:24:06.598Z,23.03
2019-05-01T06:26:40.389Z,22.90
2019-05-01T06:29:19.603Z,24.57
2019-05-01T06:31:58.713Z,22.83
2019-05-01T06:34:28.623Z,22.83
2019-05-01T06:36:58.834Z,22.67
2019-05-01T06:39:30.468Z,23.97
2019-05-01T06:42:01.363Z,21.27
2019-05-01T06:44:40.032Z,23.23
2019-05-01T06:47:19.598Z,23.00
2019-05-01T06:50:22.778Z,21.37
2019-05-01T06:52:54.144Z,22.87
2019-05-01T06:55:27.228Z,20.53
2019-05-01T06:58:01.776Z,21.33
2019-05-01T07:00:32.195Z,20.67
2019-05-01T07:03:06.083Z,21.67
2019-05-01T07:05:37.113Z,22.13
2019-05-01T07:08:09.625Z,21.03
2019-05-01T07:10:43.949Z,20.83
2019-05-01T07:13:12.799Z,20.13
2019-05-01T07:15:44.563Z,21.53
2019-05-01T07:18:18.768Z,21.67
2019-05-01T07:20:53.197Z,22.53
2019-05-01T07:23:24.466Z,21.87
2019-05-01T07:25:54.969Z,22.80
2019-05-01T07:28:29.065Z,21.17
2019-05-01T07:31:12.634Z,22.20
2019-05-01T07:33:51.161Z,21.40
2019-05-01T07:36:20.018Z,21.27
2019-05-01T07:38:50.599Z,20.93
2019-05-01T07:41:21.984Z,20.27
2019-05-01T07:44:15.772Z,22.23
2019-05-01T07:47:02.895Z,20.77
2019-05-01T07:49:54.725Z,21.70
2019-05-01T07:52:25.995Z,22.00
2019-05-01T07:55:00.831Z,22.67
2019-05-01T07:57:34.173Z,22.57
2019-05-01T08:00:08.657Z,22.80
2019-05-01T08:02:42.119Z,22.73
2019-05-01T08:05:14.695Z,21.07
2019-05-01T08:07:48.282Z,23.47
2019-05-01T08:10:25.930Z,22.77
2019-05-01T08:13:04.520Z,23.13
2019-05-01T08:15:37.084Z,21.90
2019-05-01T08:18:36.094Z,22.37
2019-05-01T08:21:27.576Z,21.10
2019-05-01T08:23:58.287Z,21.50
2019-05-01T08:26:29.591Z,23.63
2019-05-01T08:29:31.034Z,23.10
2019-05-01T08:32:33.740Z,24.10
2019-05-01T08:35:07.954Z,23.47
2019-05-01T08:37:43.984Z,24.67
2019-05-01T08:40:16.031Z,26.47
2019-05-01T08:42:49.132Z,25.27
2019-05-01T08:45:40.798Z,28.23
2019-05-01T08:48:38.325Z,24.30
2019-05-01T08:51:09.658Z,25.17
2019-05-01T08:53:40.231Z,24.67
2019-05-01T08:56:11.481Z,30.43
2019-05-01T08:58:44.849Z,43.63
2019-05-01T09:01:17.721Z,27.07
2019-05-01T09:03:49.746Z,25.10
2019-05-01T09:06:33.667Z,25.00
2019-05-01T09:09:02.796Z,25.77
2019-05-01T09:11:36.207Z,25.43
2019-05-01T09:14:10.766Z,23.30
2019-05-01T09:16:42.266Z,23.67
2019-05-01T09:19:15.580Z,24.40
2019-05-01T09:21:47.010Z,23.60
2019-05-01T09:24:18.297Z,23.77
2019-05-01T09:27:18.452Z,24.83
2019-05-01T09:29:51.520Z,24.80
2019-05-01T09:32:23.521Z,24.57
2019-05-01T09:35:14.849Z,25.03
2019-05-01T09:37:34.404Z,25.07
2019-05-01T09:40:10.894Z,23.87
2019-05-01T09:42:42.345Z,25.07
2019-05-01T09:45:15.373Z,23.30
2019-05-01T09:47:51.209Z,24.97
2019-05-01T09:50:25.896Z,25.00
2019-05-01T09:53:19.732Z,24.03
2019-05-01T09:55:58.255Z,25.90
2019-05-01T09:58:28.923Z,24.27
2019-05-01T10:01:01.852Z,25.53
2019-05-01T10:03:34.621Z,26.10
2019-05-01T10:06:07.055Z,27.63
2019-05-01T10:08:41.909Z,26.57
2019-05-01T10:11:16.209Z,25.57
2019-05-01T10:13:58.554Z,25.63
2019-05-01T10:16:45.789Z,26.97
2019-05-01T10:19:24.293Z,25.60
2019-05-01T10:22:04.053Z,24.60
2019-05-01T10:24:37.664Z,25.93
2019-05-01T10:27:09.405Z,25.00
2019-05-01T10:30:14.326Z,26.30
2019-05-01T10:33:03.495Z,24.53
2019-05-01T10:35:55.560Z,25.47
2019-05-01T10:38:28.073Z,27.07
2019-05-01T10:41:04.169Z,27.97
2019-05-01T10:43:37.143Z,26.60
2019-05-01T10:46:09.983Z,26.77
2019-05-01T10:48:41.042Z,28.20
2019-05-01T10:51:13.493Z,26.50
2019-05-01T10:53:48.403Z,27.43
2019-05-01T10:56:21.965Z,27.43
2019-05-01T10:58:53.785Z,26.60
2019-05-01T11:02:05.270Z,26.70
2019-05-01T11:04:41.015Z,25.10
2019-05-01T11:07:21.046Z,26.33
2019-05-01T11:09:58.004Z,26.73
2019-05-01T11:12:31.937Z,28.27
2019-05-01T11:15:06.080Z,25.67
2019-05-01T11:17:37.531Z,27.47
2019-05-01T11:20:10.835Z,27.20
2019-05-01T11:22:52.148Z,28.33
2019-05-01T11:25:28.874Z,29.00
2019-05-01T11:28:04.476Z,25.83
2019-05-01T11:30:35.917Z,27.33
2019-05-01T11:33:17.234Z,28.97
2019-05-01T11:36:23.196Z,27.40
2019-05-01T11:39:40.833Z,27.93
2019-05-01T11:42:14.187Z,26.37
2019-05-01T11:44:48.122Z,25.70
2019-05-01T11:47:23.813Z,25.83
2019-05-01T11:50:04.870Z,27.43
2019-05-01T11:52:47.916Z,26.07
2019-05-01T11:55:21.132Z,25.37
2019-05-01T11:57:55.621Z,25.73
2019-05-01T12:00:41.927Z,27.07
2019-05-01T12:03:34.759Z,26.57
2019-05-01T12:06:08.244Z,25.63
2019-05-01T12:08:39.713Z,25.93
2019-05-01T12:11:13.357Z,27.83
2019-05-01T12:13:46.538Z,26.07
2019-05-01T12:16:45.214Z,28.23
2019-05-01T12:19:23.151Z,27.60
2019-05-01T12:21:58.616Z,29.53
2019-05-01T12:24:32.821Z,30.13
2019-05-01T12:27:05.336Z,29.77
2019-05-01T12:29:41.774Z,31.50
2019-05-01T12:32:10.586Z,29.67
2019-05-01T12:34:43.429Z,29.60
2019-05-01T12:37:55.471Z,30.73
2019-05-01T12:40:33.461Z,29.93
2019-05-01T12:43:12.490Z,30.93
2019-05-01T12:45:51.300Z,31.00
2019-05-01T12:48:27.337Z,29.53
2019-05-01T12:51:00.532Z,31.27
2019-05-01T12:53:48.550Z,29.90
2019-05-01T12:56:34.055Z,29.83
2019-05-01T12:59:08.333Z,29.83
2019-05-01T13:01:47.233Z,30.73
2019-05-01T13:04:24.993Z,30.87
2019-05-01T13:07:01.970Z,31.53
2019-05-01T13:09:36.205Z,29.70
2019-05-01T13:12:07.278Z,30.83
2019-05-01T13:14:37.665Z,30.70
2019-05-01T13:17:09.004Z,31.03
2019-05-01T13:19:42.448Z,29.80
2019-05-01T13:22:15.996Z,30.47
2019-05-01T13:24:53.540Z,29.40
2019-05-01T13:27:31.898Z,28.97
2019-05-01T13:30:17.218Z,29.70
2019-05-01T13:32:52.387Z,30.10
2019-05-01T13:35:24.508Z,29.93
2019-05-01T13:38:06.817Z,29.80
2019-05-01T13:40:43.100Z,29.53
2019-05-01T13:43:18.175Z,30.17
2019-05-01T13:45:51.800Z,30.60
2019-05-01T13:48:22.948Z,29.97
2019-05-01T13:51:05.896Z,30.70
2019-05-01T13:53:39.506Z,30.90
2019-05-01T13:56:10.758Z,30.87
2019-05-01T13:58:41.889Z,31.53
2019-05-01T14:01:17.374Z,32.80
2019-05-01T14:03:51.402Z,30.67
2019-05-01T14:06:28.262Z,32.50
2019-05-01T14:09:03.845Z,31.60
2019-05-01T14:11:41.510Z,30.57
2019-05-01T14:14:16.367Z,30.33
2019-05-01T14:16:58.736Z,32.37
2019-05-01T14:19:31.041Z,32.20
2019-05-01T14:22:27.830Z,31.17
2019-05-01T14:25:02.217Z,31.67
2019-05-01T14:27:36.705Z,31.60
2019-05-01T14:30:13.915Z,28.07
2019-05-01T14:33:09.039Z,28.00
2019-05-01T14:35:40.414Z,29.23
2019-05-01T14:38:13.550Z,30.30
2019-05-01T14:40:53.481Z,28.77
2019-05-01T14:43:29.865Z,29.77
2019-05-01T14:46:07.166Z,28.53
2019-05-01T14:48:40.280Z,29.10
2019-05-01T14:51:11.345Z,28.77
2019-05-01T14:53:45.798Z,28.23
2019-05-01T14:56:22.341Z,29.03
2019-05-01T14:58:55.018Z,28.53
2019-05-01T15:01:27.731Z,29.83
2019-05-01T15:04:01.506Z,28.80
2019-05-01T15:06:32.626Z,28.97
2019-05-01T15:09:09.936Z,29.23
2019-05-01T15:11:50.910Z,29.47
2019-05-01T15:14:45.506Z,29.70
2019-05-01T15:17:29.234Z,29.47
2019-05-01T15:20:08.787Z,29.43
2019-05-01T15:22:39.594Z,28.87
2019-05-01T15:25:16.378Z,29.73
2019-05-01T15:27:48.703Z,29.37
2019-05-01T15:30:20.734Z,28.10
2019-05-01T15:32:51.201Z,29.23
2019-05-01T15:35:23.817Z,28.93
2019-05-01T15:37:56.842Z,28.87
2019-05-01T15:40:38.013Z,28.13
2019-05-01T15:43:31.420Z,28.57
2019-05-01T15:46:02.346Z,30.20
2019-05-01T15:48:42.699Z,29.70
2019-05-01T15:51:13.313Z,28.30
2019-05-01T15:53:44.041Z,29.00
2019-05-01T15:56:20.418Z,29.83
2019-05-01T15:59:05.614Z,30.77
2019-05-01T16:01:36.426Z,28.90
2019-05-01T16:04:08.644Z,30.77
2019-05-01T16:07:01.695Z,30.73
2019-05-01T16:09:33.141Z,28.70
2019-05-01T16:12:28.983Z,30.80
2019-05-01T16:15:01.871Z,29.87
2019-05-01T16:17:32.987Z,29.47
2019-05-01T16:20:27.424Z,30.80
2019-05-01T16:22:58.582Z,30.43
2019-05-01T16:25:34.471Z,31.57
2019-05-01T16:28:15.185Z,30.40
2019-05-01T16:30:47.636Z,31.57
2019-05-01T16:33:19.599Z,30.67
2019-05-01T16:35:59.264Z,29.70
2019-05-01T16:38:49.444Z,30.13
2019-05-01T16:41:19.994Z,30.87
2019-05-01T16:43:53.617Z,29.77
2019-05-01T16:46:26.122Z,29.87
2019-05-01T16:49:08.397Z,31.17
2019-05-01T16:51:48.708Z,30.07
2019-05-01T16:54:22.887Z,32.17
2019-05-01T16:56:57.451Z,31.43
2019-05-01T16:59:36.500Z,30.67
2019-05-01T17:02:26.726Z,31.77
2019-05-01T17:05:12.019Z,30.40
2019-05-01T17:08:05.024Z,30.37
2019-05-01T17:10:44.763Z,28.90
2019-05-01T17:13:16.842Z,30.47
2019-05-01T17:15:53.917Z,29.77
2019-05-01T17:18:25.767Z,32.00
2019-05-01T17:21:00.585Z,31.20
2019-05-01T17:23:31.993Z,30.43
2019-05-01T17:26:10.821Z,29.03
2019-05-01T17:28:41.040Z,28.97
2019-05-01T17:31:17.094Z,30.43
2019-05-01T17:33:50.790Z,32.07
2019-05-01T17:36:31.267Z,30.33
2019-05-01T17:39:02.808Z,29.97
2019-05-01T17:41:34.016Z,30.30
2019-05-01T17:44:13.289Z,30.53
2019-05-01T17:47:00.141Z,30.53
2019-05-01T17:49:48.323Z,30.47
2019-05-01T17:52:19.980Z,29.87
2019-05-01T17:55:01.430Z,28.30
2019-05-01T17:57:37.227Z,27.47
2019-05-01T18:00:30.374Z,30.07
2019-05-01T18:03:18.827Z,29.03
2019-05-01T18:06:16.902Z,29.37
2019-05-01T18:09:02.414Z,29.67
2019-05-01T18:11:26.032Z,26.73
2019-05-01T18:14:16.493Z,29.87
2019-05-01T18:17:00.271Z,29.73
2019-05-01T18:19:39.516Z,30.53
2019-05-01T18:22:43.410Z,31.53
2019-05-01T18:25:32.753Z,31.03
2019-05-01T18:28:19.594Z,31.03
2019-05-01T18:30:56.456Z,30.40
2019-05-01T18:33:27.237Z,31.10
2019-05-01T18:35:59.215Z,30.00
2019-05-01T18:39:15.874Z,33.00
2019-05-01T18:41:52.228Z,32.00
2019-05-01T18:44:31.193Z,31.03
2019-05-01T18:47:06.827Z,33.10
2019-05-01T18:49:42.470Z,31.80
2019-05-01T18:52:17.787Z,33.60
2019-05-01T18:55:02.692Z,31.87
2019-05-01T18:57:36.344Z,32.27
2019-05-01T19:00:11.588Z,32.80
2019-05-01T19:02:52.825Z,30.13
2019-05-01T19:05:28.572Z,31.17
2019-05-01T19:08:05.009Z,30.43
2019-05-01T19:10:42.466Z,30.73
2019-05-01T19:13:19.143Z,30.83
2019-05-01T19:15:51.445Z,31.53
2019-05-01T19:18:25.385Z,31.63
2019-05-01T19:20:59.865Z,30.67
2019-05-01T19:23:34.931Z,34.03
2019-05-01T19:26:13.726Z,34.07
2019-05-01T19:28:50.201Z,32.67
2019-05-01T19:31:49.364Z,33.10
2019-05-01T19:34:24.158Z,32.43
2019-05-01T19:37:02.436Z,33.93
2019-05-01T19:39:43.949Z,32.93
2019-05-01T19:42:21.617Z,34.77
2019-05-01T19:44:56.061Z,36.27
2019-05-01T19:47:29.638Z,40.47
2019-05-01T19:50:09.540Z,43.33
2019-05-01T19:52:48.051Z,38.80
2019-05-01T19:55:23.671Z,36.13
2019-05-01T19:58:01.086Z,37.47
2019-05-01T20:01:04.548Z,35.70
2019-05-01T20:03:43.580Z,35.77
2019-05-01T20:06:27.100Z,35.40
2019-05-01T20:09:00.389Z,34.87
2019-05-01T20:11:37.644Z,33.20
2019-05-01T20:14:19.832Z,34.90
2019-05-01T20:16:55.110Z,33.43
2019-05-01T20:19:28.398Z,33.77
2019-05-01T20:22:03.343Z,34.37
2019-05-01T20:24:39.943Z,35.60
2019-05-01T20:27:14.157Z,37.17
2019-05-01T20:29:45.717Z,36.03
2019-05-01T20:32:26.226Z,35.83
2019-05-01T20:35:00.207Z,35.53
2019-05-01T20:37:36.458Z,37.63
2019-05-01T20:40:11.142Z,33.53
2019-05-01T20:42:39.932Z,35.03
2019-05-01T20:45:17.361Z,35.03
2019-05-01T20:47:48.134Z,34.47
2019-05-01T20:50:21.018Z,35.10
2019-05-01T20:53:07.635Z,34.17
2019-05-01T20:55:41.826Z,33.60
2019-05-01T20:58:22.487Z,31.73
2019-05-01T21:01:00.640Z,33.77
2019-05-01T21:03:37.315Z,32.90
2019-05-01T21:06:19.474Z,31.83
2019-05-01T21:09:13.844Z,33.03
2019-05-01T21:11:49.583Z,31.03
2019-05-01T21:14:22.887Z,29.87
2019-05-01T21:16:59.165Z,30.93
2019-05-01T21:19:31.055Z,30.17
2019-05-01T21:22:03.851Z,30.17
2019-05-01T21:24:34.131Z,29.77
2019-05-01T21:27:04.856Z,28.70
2019-05-01T21:29:35.366Z,28.87
2019-05-01T21:32:09.956Z,27.63
2019-05-01T21:34:40.434Z,28.67
2019-05-01T21:37:10.933Z,31.50
2019-05-01T21:39:43.521Z,29.83
2019-05-01T21:42:24.551Z,30.50
2019-05-01T21:44:55.274Z,29.40
2019-05-01T21:47:46.606Z,28.47
2019-05-01T21:50:17.752Z,30.60
2019-05-01T21:52:53.770Z,29.80
2019-05-01T21:55:25.693Z,30.10
2019-05-01T21:57:56.366Z,28.30
2019-05-01T22:00:31.089Z,29.07
2019-05-01T22:03:01.938Z,28.43
2019-05-01T22:05:34.783Z,27.70
2019-05-01T22:08:05.015Z,28.00
2019-05-01T22:10:37.032Z,26.83
2019-05-01T22:13:09.238Z,26.50
2019-05-01T22:15:47.163Z,28.67
2019-05-01T22:18:31.610Z,26.53
2019-05-01T22:21:16.795Z,26.63
2019-05-01T22:24:14.024Z,27.70
2019-05-01T22:26:47.844Z,25.87
2019-05-01T22:29:20.609Z,29.43
2019-05-01T22:32:18.793Z,27.23
2019-05-01T22:35:01.181Z,27.33
2019-05-01T22:37:31.586Z,27.67
2019-05-01T22:40:06.518Z,28.47
2019-05-01T22:42:36.949Z,25.70
2019-05-01T22:45:11.642Z,27.50
2019-05-01T22:47:46.019Z,26.23
2019-05-01T22:50:14.336Z,28.23
2019-05-01T22:52:44.676Z,28.27
2019-05-01T22:55:20.461Z,27.23
2019-05-01T22:57:49.093Z,27.40
2019-05-01T23:00:43.757Z,27.20
2019-05-01T23:03:20.939Z,23.83
2019-05-01T23:05:51.569Z,25.03
2019-05-01T23:08:21.929Z,24.93
2019-05-01T23:10:52.898Z,27.53
2019-05-01T23:13:23.567Z,27.07
2019-05-01T23:15:56.155Z,24.73
2019-05-01T23:18:26.513Z,25.40
2019-05-01T23:20:57.303Z,24.70
2019-05-01T23:23:27.737Z,25.30
2019-05-01T23:25:58.121Z,26.03
2019-05-01T23:28:28.926Z,25.77
2019-05-01T23:30:59.559Z,24.93
2019-05-01T23:33:29.760Z,26.30
2019-05-01T23:36:00.254Z,25.07
2019-05-01T23:38:35.259Z,24.33
2019-05-01T23:41:05.653Z,23.83
2019-05-01T23:43:35.923Z,23.33
2019-05-01T23:46:06.472Z,22.93
2019-05-01T23:48:37.037Z,22.43
2019-05-01T23:51:07.390Z,23.20
2019-05-01T23:53:38.193Z,23.73
2019-05-01T23:56:08.808Z,24.23
2019-05-01T23:58:39.044Z,25.07
